Time;durP1;ratioP1;P1;durP2;ratioP2;P2;SDS_P1;SDS_P2;PMS_P1;PMS_P2;Temp;Humidity;BMP_temperature;BMP_pressure;BME280_temperature;BME280_humidity;BME280_pressure;Samples;Min_cycle;Max_cycle;Signal;HPM_P1;HPM_P2
2022/08/24 00:01:50;;;;;;;;;;;;;;;27.43;38.53;100286.81;5073581;28;996;-36
2022/08/24 00:04:15;;;;;;;;;;;;;;;27.35;38.62;100287.81;5076316;28;969;-36
2022/08/24 00:06:40;;;;;;;;;;;;;;;27.37;38.11;100283.03;5075975;28;1199;-35
2022/08/24 00:09:06;;;;;;;;;;;;;;;27.35;38.15;100267.03;5076518;28;969;-35
2022/08/24 00:11:31;;;;;;;;;;;;;;;27.26;37.70;100257.41;5065357;28;1082;-35
2022/08/24 00:13:56;;;;;;;;;;;;;;;27.26;37.70;100268.19;5068180;28;1005;-34
2022/08/24 00:16:22;;;;;;;;;;;;;;;27.26;37.83;100268.19;5072221;28;1025;-36
2022/08/24 00:18:47;;;;;;;;;;;;;;;27.26;38.19;100266.34;5068743;28;1926;-34
2022/08/24 00:21:13;;;;;;;;;;;;;;;27.33;38.58;100258.28;5072509;28;1080;-35
2022/08/24 00:23:38;;;;;;;;;;;;;;;27.30;37.92;100260.53;5069742;28;1904;-35
2022/08/24 00:26:03;;;;;;;;;;;;;;;27.25;38.11;100264.69;5075136;28;977;-34
2022/08/24 00:28:29;;;;;;;;;;;;;;;27.22;38.00;100262.38;5074902;28;1191;-35
2022/08/24 00:30:54;;;;;;;;;;;;;;;27.17;38.42;100261.28;5076254;28;1072;-35
2022/08/24 00:33:20;;;;;;;;;;;;;;;27.17;38.09;100256.72;5068668;28;1251;-37
2022/08/24 00:35:45;;;;;;;;;;;;;;;27.17;38.28;100255.88;5064909;28;1264;-37
2022/08/24 00:38:10;;;;;;;;;;;;;;;27.31;38.09;100263.03;5071061;28;1902;-37
2022/08/24 00:40:36;;;;;;;;;;;;;;;27.27;38.29;100261.78;5068514;28;1029;-36
2022/08/24 00:43:03;;;;;;;;;;;;;;;27.30;38.33;100252.44;5066615;28;996;-39
2022/08/24 00:45:33;;;;;;;;;;;;;;;27.26;38.24;100247.44;5068331;28;1060;-37
2022/08/24 00:48:01;;;;;;;;;;;;;;;27.21;37.82;100252.59;5066605;28;941;-36
2022/08/24 00:50:44;;;;;;;;;;;;;;;27.17;38.13;100250.47;5053422;28;1033;-36
2022/08/24 00:53:22;;;;;;;;;;;;;;;27.18;38.23;100257.53;5068890;28;1166;-35
2022/08/24 00:55:48;;;;;;;;;;;;;;;27.24;38.08;100260.28;5055617;28;2565;-36
2022/08/24 00:58:15;;;;;;;;;;;;;;;27.39;37.71;100252.09;5068904;28;1894;-34
2022/08/24 01:00:44;;;;;;;;;;;;;;;27.31;37.68;100243.34;5056421;28;1116;-35
2022/08/24 01:03:09;;;;;;;;;;;;;;;27.18;37.66;100231.38;5056863;28;1128;-34
2022/08/24 01:05:35;;;;;;;;;;;;;;;27.16;37.73;100238.84;5057759;28;976;-34
2022/08/24 01:08:01;;;;;;;;;;;;;;;27.17;38.09;100240.53;5068738;28;1004;-34
2022/08/24 01:10:27;;;;;;;;;;;;;;;27.23;37.71;100241.59;5065395;28;1055;-36
2022/08/24 01:12:56;;;;;;;;;;;;;;;27.12;37.95;100248.38;5070769;28;1009;-37
2022/08/24 01:15:21;;;;;;;;;;;;;;;27.30;37.88;100233.53;5050267;28;1211;-37
2022/08/24 01:20:30;;;;;;;;;;;;;;;27.25;37.80;100240.38;5053484;28;848;-35
2022/08/24 01:22:56;;;;;;;;;;;;;;;27.25;37.33;100256.59;5074037;28;985;-35
2022/08/24 01:25:22;;;;;;;;;;;;;;;27.22;37.67;100258.84;5068309;28;2318;-36
2022/08/24 01:27:47;;;;;;;;;;;;;;;27.31;38.03;100271.16;5057576;28;1123;-36
2022/08/24 01:30:13;;;;;;;;;;;;;;;27.32;37.64;100282.78;5048692;28;1103;-37
2022/08/24 01:32:39;;;;;;;;;;;;;;;27.21;37.36;100286.88;5057239;28;1045;-34
2022/08/24 01:35:05;;;;;;;;;;;;;;;27.30;37.81;100293.78;5070616;28;1064;-37
2022/08/24 01:37:31;;;;;;;;;;;;;;;27.48;37.71;100303.28;5063032;28;1910;-36
2022/08/24 01:39:57;;;;;;;;;;;;;;;27.36;37.80;100306.50;5072406;28;976;-34
2022/08/24 01:42:22;;;;;;;;;;;;;;;27.25;37.69;100304.34;5051969;28;1247;-35
2022/08/24 01:44:47;;;;;;;;;;;;;;;27.22;37.72;100310.13;5060219;28;1040;-35
2022/08/24 01:47:13;;;;;;;;;;;;;;;27.19;37.38;100324.03;5071746;28;799;-36
2022/08/24 01:49:42;;;;;;;;;;;;;;;27.11;37.71;100319.59;5072790;28;1060;-35
2022/08/24 01:52:08;;;;;;;;;;;;;;;27.13;37.87;100312.97;5077061;28;1147;-35
2022/08/24 01:54:34;;;;;;;;;;;;;;;27.32;38.17;100305.25;5073976;28;2242;-36
2022/08/24 01:56:59;;;;;;;;;;;;;;;27.32;37.84;100307.94;5078394;28;1915;-36
2022/08/24 01:59:25;;;;;;;;;;;;;;;27.21;37.60;100308.47;5072518;28;1147;-36
2022/08/24 02:01:58;;;;;;;;;;;;;;;27.09;37.75;100295.47;5072769;28;982;-37
2022/08/24 02:04:23;;;;;;;;;;;;;;;27.13;37.93;100288.69;5053686;28;871;-36
2022/08/24 02:06:48;;;;;;;;;;;;;;;27.05;37.54;100269.06;5068809;28;1171;-35
2022/08/24 02:09:13;;;;;;;;;;;;;;;27.02;37.57;100259.50;5061833;28;992;-34
2022/08/24 02:11:39;;;;;;;;;;;;;;;27.08;38.03;100252.47;5071665;28;1162;-35
2022/08/24 02:14:04;;;;;;;;;;;;;;;27.30;38.33;100261.38;5075780;28;1053;-35
2022/08/24 02:16:30;;;;;;;;;;;;;;;27.27;38.15;100253.69;5075939;28;1087;-35
2022/08/24 02:18:55;;;;;;;;;;;;;;;27.12;37.77;100245.69;5076612;28;1906;-35
2022/08/24 02:21:21;;;;;;;;;;;;;;;27.15;37.73;100234.47;5077904;28;877;-35
2022/08/24 02:23:46;;;;;;;;;;;;;;;27.05;37.91;100225.88;5072863;28;1804;-35
2022/08/24 02:26:11;;;;;;;;;;;;;;;27.02;37.64;100221.72;5070553;28;1020;-35
2022/08/24 02:28:37;;;;;;;;;;;;;;;27.07;37.83;100221.97;5070255;28;1068;-36
2022/08/24 02:31:04;;;;;;;;;;;;;;;27.04;37.84;100203.47;5071607;28;961;-35
2022/08/24 02:33:30;;;;;;;;;;;;;;;27.38;38.23;100222.59;5073681;28;957;-35
2022/08/24 02:35:55;;;;;;;;;;;;;;;27.50;38.14;100202.09;5067577;28;993;-34
2022/08/24 02:38:21;;;;;;;;;;;;;;;27.39;38.41;100197.25;5076066;28;1927;-36
2022/08/24 02:40:46;;;;;;;;;;;;;;;27.32;37.68;100191.81;5074844;28;1147;-35
2022/08/24 02:43:11;;;;;;;;;;;;;;;27.20;37.67;100188.00;5073581;28;978;-34
2022/08/24 02:45:41;;;;;;;;;;;;;;;27.19;37.65;100181.78;5075287;28;1025;-35
2022/08/24 02:48:07;;;;;;;;;;;;;;;27.17;37.66;100166.78;5066341;28;1163;-36
2022/08/24 02:50:32;;;;;;;;;;;;;;;27.21;37.90;100168.88;5076344;28;1092;-35
2022/08/24 02:52:58;;;;;;;;;;;;;;;27.28;38.64;100168.94;5075780;28;1147;-35
2022/08/24 02:55:23;;;;;;;;;;;;;;;27.47;38.17;100164.69;5077517;28;2614;-36
2022/08/24 02:57:49;;;;;;;;;;;;;;;27.34;38.80;100154.63;5077266;28;1955;-34
2022/08/24 03:00:15;;;;;;;;;;;;;;;27.29;38.09;100154.41;5065594;28;864;-36
2022/08/24 03:02:41;;;;;;;;;;;;;;;27.29;38.28;100145.47;5073446;28;997;-35
2022/08/24 03:05:06;;;;;;;;;;;;;;;27.31;38.06;100141.53;5068896;28;1163;-34
2022/08/24 03:07:32;;;;;;;;;;;;;;;27.32;38.29;100136.97;5074434;28;1060;-35
2022/08/24 03:09:57;;;;;;;;;;;;;;;27.28;38.36;100125.72;5071357;28;1147;-34
2022/08/24 03:12:22;;;;;;;;;;;;;;;27.31;38.35;100122.63;5073070;28;1477;-35
2022/08/24 03:14:47;;;;;;;;;;;;;;;27.28;38.52;100122.22;5075249;28;1065;-34
2022/08/24 03:17:13;;;;;;;;;;;;;;;27.32;38.44;100123.47;5076560;28;1905;-35
2022/08/24 03:19:39;;;;;;;;;;;;;;;26.99;38.70;100114.94;5077791;28;1131;-35
2022/08/24 03:22:04;;;;;;;;;;;;;;;27.12;38.71;100127.72;5073112;28;1021;-37
2022/08/24 03:24:29;;;;;;;;;;;;;;;27.28;39.46;100119.50;5069306;28;2244;-37
2022/08/24 03:26:54;;;;;;;;;;;;;;;27.47;38.88;100116.06;5070149;28;965;-36
2022/08/24 03:29:20;;;;;;;;;;;;;;;27.49;39.33;100102.34;5071547;28;1143;-36
2022/08/24 03:31:45;;;;;;;;;;;;;;;27.47;39.92;100107.97;5073481;28;1004;-36
2022/08/24 03:34:13;;;;;;;;;;;;;;;27.29;39.92;100096.88;5072592;28;1208;-42
2022/08/24 03:36:39;;;;;;;;;;;;;;;27.34;40.11;100080.91;5071899;28;973;-42
2022/08/24 03:39:05;;;;;;;;;;;;;;;27.26;40.25;100087.28;5074633;28;1897;-43
2022/08/24 03:41:30;;;;;;;;;;;;;;;26.94;40.91;100087.72;5074926;28;941;-43
2022/08/24 03:43:55;;;;;;;;;;;;;;;26.84;41.71;100074.56;5073371;28;1147;-42
2022/08/24 03:46:27;;;;;;;;;;;;;;;26.87;42.39;100070.66;5072875;28;1163;-42
2022/08/24 03:48:53;;;;;;;;;;;;;;;26.97;42.20;100051.41;5074446;28;886;-42
2022/08/24 03:51:19;;;;;;;;;;;;;;;26.99;42.44;100050.16;5076073;28;1128;-41
2022/08/24 03:53:44;;;;;;;;;;;;;;;26.97;43.53;100046.00;5074951;28;2327;-43
2022/08/24 03:56:09;;;;;;;;;;;;;;;27.25;44.31;100059.47;5063051;28;1018;-44
2022/08/24 03:58:35;;;;;;;;;;;;;;;27.21;42.84;100066.28;5067833;28;1901;-43
2022/08/24 04:01:01;;;;;;;;;;;;;;;27.31;42.61;100075.91;5069045;28;935;-44
2022/08/24 04:03:27;;;;;;;;;;;;;;;27.24;42.14;100073.16;5064760;28;1227;-42
2022/08/24 04:05:52;;;;;;;;;;;;;;;27.36;42.39;100079.66;5073802;28;973;-43
2022/08/24 04:08:18;;;;;;;;;;;;;;;27.46;42.02;100076.56;5071636;28;1100;-43
2022/08/24 04:10:43;;;;;;;;;;;;;;;27.51;41.82;100092.16;5074794;28;1009;-42
2022/08/24 04:13:09;;;;;;;;;;;;;;;27.48;41.92;100115.03;5070617;28;950;-42
2022/08/24 04:15:37;;;;;;;;;;;;;;;27.56;41.50;100138.31;5076513;28;992;-43
2022/08/24 04:18:02;;;;;;;;;;;;;;;27.48;40.99;100179.84;5064585;28;1959;-42
2022/08/24 04:20:28;;;;;;;;;;;;;;;27.43;40.78;100195.81;5065255;28;1202;-42
2022/08/24 04:22:53;;;;;;;;;;;;;;;27.41;40.61;100202.47;5066145;28;953;-42
2022/08/24 04:25:18;;;;;;;;;;;;;;;27.42;40.57;100209.53;5066103;28;1893;-43
2022/08/24 04:27:44;;;;;;;;;;;;;;;27.45;40.12;100212.66;5072369;28;1075;-42
2022/08/24 04:30:09;;;;;;;;;;;;;;;27.13;40.33;100226.56;5067830;28;1060;-42
2022/08/24 04:32:34;;;;;;;;;;;;;;;26.99;40.37;100238.28;5069347;28;1068;-42
2022/08/24 04:35:00;;;;;;;;;;;;;;;26.93;40.75;100229.09;5067736;28;1012;-42
2022/08/24 04:37:25;;;;;;;;;;;;;;;26.92;40.36;100222.03;5069649;28;1959;-42
2022/08/24 04:39:51;;;;;;;;;;;;;;;26.96;40.21;100226.00;5070958;28;1048;-42
2022/08/24 04:42:18;;;;;;;;;;;;;;;26.87;39.95;100209.13;5069547;28;1084;-42
2022/08/24 04:44:44;;;;;;;;;;;;;;;26.92;39.74;100205.84;5072731;28;1147;-42
2022/08/24 04:47:09;;;;;;;;;;;;;;;26.90;39.64;100221.38;5074765;28;989;-42
2022/08/24 04:49:36;;;;;;;;;;;;;;;26.93;39.87;100225.53;5072476;28;1057;-42
2022/08/24 04:52:01;;;;;;;;;;;;;;;27.00;39.71;100229.97;5076586;28;965;-43
2022/08/24 04:54:27;;;;;;;;;;;;;;;27.10;39.46;100221.56;5063525;28;1849;-42
2022/08/24 04:56:52;;;;;;;;;;;;;;;27.21;39.62;100228.28;5067082;28;1956;-42
2022/08/24 04:59:17;;;;;;;;;;;;;;;27.36;39.37;100227.38;5070849;28;1008;-42
2022/08/24 05:01:43;;;;;;;;;;;;;;;27.21;39.56;100228.28;5067679;28;1085;-45
2022/08/24 05:04:08;;;;;;;;;;;;;;;27.27;39.08;100223.97;5072916;28;1012;-46
2022/08/24 05:06:34;;;;;;;;;;;;;;;27.25;39.07;100229.59;5071061;28;1222;-46
2022/08/24 05:08:59;;;;;;;;;;;;;;;27.23;39.28;100233.50;5074164;28;1024;-43
2022/08/24 05:11:28;;;;;;;;;;;;;;;27.26;39.58;100238.50;5073879;28;1346;-43
2022/08/24 05:13:53;;;;;;;;;;;;;;;27.42;38.77;100248.19;5075489;28;985;-46
2022/08/24 05:16:18;;;;;;;;;;;;;;;27.34;38.94;100256.44;5069464;28;1008;-42
2022/08/24 05:18:44;;;;;;;;;;;;;;;27.45;38.86;100264.00;5064826;28;1910;-42
2022/08/24 05:21:11;;;;;;;;;;;;;;;27.38;38.83;100258.53;5070900;28;937;-42
2022/08/24 05:23:37;;;;;;;;;;;;;;;27.46;38.76;100244.03;5066717;28;1746;-43
2022/08/24 05:26:05;;;;;;;;;;;;;;;27.55;38.41;100228.53;5071415;28;1146;-43
2022/08/24 05:28:30;;;;;;;;;;;;;;;27.56;38.46;100221.25;5070981;28;1071;-43
2022/08/24 05:30:56;;;;;;;;;;;;;;;27.53;38.21;100219.78;5072988;28;957;-42
2022/08/24 05:33:21;;;;;;;;;;;;;;;27.56;38.37;100205.03;5074262;28;1036;-44
2022/08/24 05:35:46;;;;;;;;;;;;;;;27.47;38.34;100198.97;5072153;28;1207;-43
2022/08/24 05:38:12;;;;;;;;;;;;;;;27.46;38.44;100195.41;5074496;28;1902;-42
2022/08/24 05:40:37;;;;;;;;;;;;;;;27.48;38.73;100187.13;5065826;28;977;-43
2022/08/24 05:43:02;;;;;;;;;;;;;;;27.58;38.45;100200.25;5068196;28;1137;-43
2022/08/24 05:45:28;;;;;;;;;;;;;;;27.62;38.39;100209.66;5074802;28;1000;-42
2022/08/24 05:47:53;;;;;;;;;;;;;;;27.67;38.11;100223.41;5072132;28;1177;-44
2022/08/24 05:50:18;;;;;;;;;;;;;;;27.67;38.12;100234.19;5066575;28;1000;-42
2022/08/24 05:52:44;;;;;;;;;;;;;;;27.45;38.24;100230.72;5063200;28;965;-42
2022/08/24 05:55:09;;;;;;;;;;;;;;;27.47;38.13;100251.13;5062258;28;2428;-42
2022/08/24 05:57:34;;;;;;;;;;;;;;;27.52;38.07;100239.72;5071712;28;1909;-43
2022/08/24 06:00:00;;;;;;;;;;;;;;;27.61;37.78;100262.84;5068203;28;1175;-42
2022/08/24 06:02:25;;;;;;;;;;;;;;;27.41;38.24;100257.28;5073183;28;1067;-43
2022/08/24 06:04:51;;;;;;;;;;;;;;;27.51;38.14;100267.75;5071720;28;1136;-42
2022/08/24 06:07:17;;;;;;;;;;;;;;;27.53;37.63;100276.50;5074517;28;1080;-43
2022/08/24 06:09:42;;;;;;;;;;;;;;;27.38;38.02;100284.69;5074227;28;1222;-42
2022/08/24 06:12:07;;;;;;;;;;;;;;;27.54;37.63;100289.00;5068575;28;957;-42
2022/08/24 06:14:33;;;;;;;;;;;;;;;27.56;37.64;100295.00;5069401;28;1029;-42
2022/08/24 06:16:58;;;;;;;;;;;;;;;27.52;37.92;100309.97;5064964;28;1973;-42
2022/08/24 06:19:25;;;;;;;;;;;;;;;27.66;37.70;100305.47;5071069;28;1079;-42
2022/08/24 06:21:51;;;;;;;;;;;;;;;27.54;37.36;100301.66;5067998;28;1036;-42
2022/08/24 06:24:16;;;;;;;;;;;;;;;27.61;37.36;100303.38;5068481;28;1770;-42
2022/08/24 06:29:25;;;;;;;;;;;;;;;27.54;37.66;100317.88;5063489;28;1064;-42
2022/08/24 06:31:51;;;;;;;;;;;;;;;27.51;37.52;100322.63;5073786;28;1194;-42
2022/08/24 06:34:16;;;;;;;;;;;;;;;27.60;37.44;100317.91;5077243;28;1004;-43
2022/08/24 06:36:42;;;;;;;;;;;;;;;27.61;37.71;100330.38;5067102;28;973;-42
2022/08/24 06:39:07;;;;;;;;;;;;;;;26.95;37.43;100231.56;5066925;28;1902;-42
2022/08/24 06:41:33;;;;;;;;;;;;;;;27.51;37.59;100329.88;5074316;28;1067;-43
2022/08/24 06:43:58;;;;;;;;;;;;;;;27.58;37.63;100332.63;5074339;28;1052;-43
2022/08/24 06:46:24;;;;;;;;;;;;;;;27.47;37.33;100325.91;5066984;28;1091;-43
2022/08/24 06:48:50;;;;;;;;;;;;;;;27.40;37.88;100323.16;5072352;28;926;-43
2022/08/24 06:51:16;;;;;;;;;;;;;;;27.52;37.79;100326.16;5070832;28;969;-42
2022/08/24 06:53:41;;;;;;;;;;;;;;;27.59;37.43;100327.03;5071944;28;2393;-42
2022/08/24 06:56:07;;;;;;;;;;;;;;;27.55;37.90;100324.94;5072249;28;1084;-42
2022/08/24 06:58:32;;;;;;;;;;;;;;;27.65;37.91;100330.84;5074441;28;1890;-43
2022/08/24 07:00:58;;;;;;;;;;;;;;;27.70;37.87;100323.00;5073905;28;1055;-45
2022/08/24 07:03:23;;;;;;;;;;;;;;;27.67;38.27;100306.31;5076113;28;1142;-43
2022/08/24 07:05:52;;;;;;;;;;;;;;;27.73;37.73;100310.94;5078019;28;981;-41
2022/08/24 07:08:17;;;;;;;;;;;;;;;27.49;38.46;100313.88;5075087;28;1135;-42
2022/08/24 07:10:43;;;;;;;;;;;;;;;27.50;38.15;100312.00;5069560;28;1150;-42
2022/08/24 07:13:10;;;;;;;;;;;;;;;27.36;38.42;100313.81;5064978;28;1363;-43
2022/08/24 07:15:35;;;;;;;;;;;;;;;27.35;38.10;100310.25;5066015;28;937;-43
2022/08/24 07:18:01;;;;;;;;;;;;;;;27.46;37.98;100314.28;5074390;28;1956;-43
2022/08/24 07:20:28;;;;;;;;;;;;;;;27.48;37.80;100324.88;5071956;28;1119;-44
2022/08/24 07:22:54;;;;;;;;;;;;;;;27.41;38.31;100327.53;5073458;28;1092;-42
2022/08/24 07:25:19;;;;;;;;;;;;;;;27.54;38.31;100331.38;5065764;28;1761;-43
2022/08/24 07:27:45;;;;;;;;;;;;;;;27.53;38.58;100333.22;5071855;28;1028;-42
2022/08/24 07:30:10;;;;;;;;;;;;;;;27.75;38.85;100334.06;5071781;28;1055;-43
2022/08/24 07:32:35;;;;;;;;;;;;;;;27.89;38.79;100336.84;5068242;28;957;-42
2022/08/24 07:35:01;;;;;;;;;;;;;;;27.81;37.93;100342.41;5073979;28;1144;-43
2022/08/24 07:37:26;;;;;;;;;;;;;;;27.69;38.64;100342.13;5069618;28;1971;-42
2022/08/24 07:39:51;;;;;;;;;;;;;;;27.83;38.99;100346.56;5075477;28;1005;-42
2022/08/24 07:42:17;;;;;;;;;;;;;;;28.35;38.12;100353.53;5073654;28;1139;-46
2022/08/24 07:44:42;;;;;;;;;;;;;;;28.42;37.88;100348.16;5065991;28;1167;-44
2022/08/24 07:47:07;;;;;;;;;;;;;;;28.40;37.42;100355.63;5073025;28;933;-42
2022/08/24 07:49:33;;;;;;;;;;;;;;;28.34;37.77;100357.28;5067729;28;1084;-42
2022/08/24 07:51:58;;;;;;;;;;;;;;;28.14;38.12;100358.00;5073926;28;977;-42
2022/08/24 07:54:23;;;;;;;;;;;;;;;28.48;38.33;100341.94;5070933;28;1864;-42
2022/08/24 07:56:49;;;;;;;;;;;;;;;28.77;37.79;100348.09;5074481;28;1028;-42
2022/08/24 07:59:15;;;;;;;;;;;;;;;28.84;37.59;100353.50;5075437;28;1902;-42
2022/08/24 08:01:40;;;;;;;;;;;;;;;28.88;37.88;100360.19;5072429;28;1214;-42
2022/08/24 08:04:06;;;;;;;;;;;;;;;28.93;37.90;100354.13;5062744;28;1168;-42
2022/08/24 08:06:32;;;;;;;;;;;;;;;28.99;38.06;100345.25;5060809;28;1314;-42
2022/08/24 08:08:57;;;;;;;;;;;;;;;29.07;38.42;100347.75;5068057;28;1235;-42
2022/08/24 08:11:22;;;;;;;;;;;;;;;28.83;38.34;100328.31;5073692;28;1170;-44
2022/08/24 08:13:47;;;;;;;;;;;;;;;28.55;39.52;100334.69;5067833;28;961;-42
2022/08/24 08:16:13;;;;;;;;;;;;;;;28.67;39.54;100325.97;5066527;28;1060;-43
2022/08/24 08:18:38;;;;;;;;;;;;;;;28.67;39.36;100329.53;5068538;28;1918;-44
2022/08/24 08:21:03;;;;;;;;;;;;;;;28.79;39.50;100329.78;5072636;28;968;-42
2022/08/24 08:26:14;;;;;;;;;;;;;;;29.12;39.19;100321.91;5071775;28;997;-41
2022/08/24 08:28:41;;;;;;;;;;;;;;;28.98;38.50;100327.31;5073826;28;1198;-43
2022/08/24 08:31:06;;;;;;;;;;;;;;;28.88;38.93;100324.97;5076299;28;985;-43
2022/08/24 08:33:32;;;;;;;;;;;;;;;28.80;39.29;100334.13;5069365;28;1182;-44
2022/08/24 08:36:07;;;;;;;;;;;;;;;29.05;39.41;100346.28;5061137;28;1536;-43
2022/08/24 08:38:33;;;;;;;;;;;;;;;29.33;38.91;100337.97;5058990;28;1910;-42
2022/08/24 08:41:06;;;;;;;;;;;;;;;29.43;38.67;100332.13;5060949;28;1255;-42
2022/08/24 08:43:44;;;;;;;;;;;;;;;29.43;39.18;100334.84;5070326;28;1000;-42
2022/08/24 08:46:21;;;;;;;;;;;;;;;29.38;39.28;100342.75;5069351;28;1004;-42
2022/08/24 08:48:59;;;;;;;;;;;;;;;29.27;39.35;100348.81;5037147;28;1001;-43
2022/08/24 08:51:25;;;;;;;;;;;;;;;29.31;39.49;100355.50;5065675;28;1056;-42
2022/08/24 08:54:02;;;;;;;;;;;;;;;29.31;39.39;100355.50;5067050;28;2267;-42
2022/08/24 08:56:34;;;;;;;;;;;;;;;29.21;38.57;100353.19;5071846;28;1036;-42
2022/08/24 08:59:32;;;;;;;;;;;;;;;29.34;39.37;100357.78;5070410;28;1906;-43
2022/08/24 09:02:03;;;;;;;;;;;;;;;29.39;39.19;100359.88;5012285;28;1137;-42
2022/08/24 09:04:43;;;;;;;;;;;;;;;29.44;39.09;100358.22;5074317;28;1063;-42
2022/08/24 09:07:27;;;;;;;;;;;;;;;29.46;38.99;100342.56;5074022;28;1076;-42
2022/08/24 09:09:52;;;;;;;;;;;;;;;29.35;38.90;100351.31;5075402;28;1091;-43
2022/08/24 09:12:17;;;;;;;;;;;;;;;29.40;39.36;100339.84;5071875;28;953;-43
2022/08/24 09:14:43;;;;;;;;;;;;;;;29.56;38.89;100341.31;5067259;28;893;-43
2022/08/24 09:17:21;;;;;;;;;;;;;;;26.10;47.32;100341.63;5068545;28;1949;-43
2022/08/24 09:19:46;;;;;;;;;;;;;;;24.01;53.02;100330.53;5070993;28;1044;-43
2022/08/24 09:22:15;;;;;;;;;;;;;;;23.08;54.17;100329.75;5070047;28;1103;-43
2022/08/24 09:24:49;;;;;;;;;;;;;;;22.54;54.86;100330.13;5071087;28;2373;-43
2022/08/24 09:27:33;;;;;;;;;;;;;;;22.22;55.20;100335.19;5063595;28;866;-43
2022/08/24 09:30:12;;;;;;;;;;;;;;;22.08;55.65;100340.13;5065970;28;1056;-42
2022/08/24 09:32:56;;;;;;;;;;;;;;;22.00;56.11;100348.94;5074985;28;1151;-42
2022/08/24 09:35:32;;;;;;;;;;;;;;;22.10;59.57;100339.97;5069444;28;1012;-43
2022/08/24 09:37:58;;;;;;;;;;;;;;;25.39;48.28;100340.94;5045755;28;1898;-42
2022/08/24 09:40:30;;;;;;;;;;;;;;;23.32;51.00;100338.00;5070570;28;1008;-43
2022/08/24 09:43:07;;;;;;;;;;;;;;;22.27;54.54;100325.63;5064167;28;1168;-43
2022/08/24 09:45:32;;;;;;;;;;;;;;;;;;5072090;28;989;-43
2022/08/24 09:48:06;;;;;;;;;;;;;;;21.68;56.56;100326.28;5069895;28;1131;-44
2022/08/24 09:50:35;;;;;;;;;;;;;;;21.72;56.22;100337.53;5067145;28;1047;-43
2022/08/24 09:53:19;;;;;;;;;;;;;;;21.62;57.59;100330.41;5073084;28;1128;-44
2022/08/24 09:55:44;;;;;;;;;;;;;;;24.73;48.16;100330.59;5074917;28;2508;-44
2022/08/24 09:58:19;;;;;;;;;;;;;;;26.47;43.29;100328.25;5070796;28;1878;-44
2022/08/24 10:00:49;;;;;;;;;;;;;;;27.50;41.78;100328.22;5067949;28;1129;-48
2022/08/24 10:03:33;;;;;;;;;;;;;;;28.17;40.78;100317.03;5048342;28;989;-40
2022/08/24 10:06:02;;;;;;;;;;;;;;;28.46;39.94;100312.38;5061117;28;1033;-40
2022/08/24 10:08:46;;;;;;;;;;;;;;;28.59;39.35;100308.06;5069663;28;1203;-40
2022/08/24 10:11:25;;;;;;;;;;;;;;;28.41;40.20;100306.75;5076708;28;1096;-38
2022/08/24 10:13:51;;;;;;;;;;;;;;;28.63;39.75;100297.66;5073642;28;929;-39
2022/08/24 10:16:19;;;;;;;;;;;;;;;28.73;39.12;100290.81;5071172;28;1020;-37
2022/08/24 10:18:49;;;;;;;;;;;;;;;28.38;39.90;100284.69;5077614;28;1911;-37
2022/08/24 10:21:33;;;;;;;;;;;;;;;28.41;43.25;100281.59;5061572;28;969;-37
2022/08/24 10:24:12;;;;;;;;;;;;;;;28.30;39.94;100266.72;5062063;28;2207;-37
2022/08/24 10:26:37;;;;;;;;;;;;;;;28.38;40.08;100258.47;5051189;28;1029;-40
2022/08/24 10:29:08;;;;;;;;;;;;;;;28.35;42.00;100248.91;5070618;28;981;-38
2022/08/24 10:31:37;;;;;;;;;;;;;;;28.41;39.89;100241.81;5075490;28;1151;-39
2022/08/24 10:34:09;;;;;;;;;;;;;;;28.87;40.09;100249.38;5073137;28;1147;-40
2022/08/24 10:36:43;;;;;;;;;;;;;;;29.05;38.86;100256.91;5058796;28;1088;-37
2022/08/24 10:45:25;;;;;;;;;;;;;;;29.02;42.39;100304.22;5075661;28;989;-38
2022/08/24 10:48:11;;;;;;;;;;;;;;;28.96;39.55;100299.59;5074882;28;1123;-37
2022/08/24 10:50:39;;;;;;;;;;;;;;;29.23;39.03;100301.53;5044947;28;1331;-35
2022/08/24 10:53:34;;;;;;;;;;;;;;;29.27;42.37;100300.03;5060634;28;1203;-37
2022/08/24 10:56:07;;;;;;;;;;;;;;;29.39;39.22;100311.94;5044160;28;1285;-40
2022/08/24 10:58:33;;;;;;;;;;;;;;;29.40;38.95;100315.47;5066863;28;1914;-37
2022/08/24 11:01:18;;;;;;;;;;;;;;;29.59;41.20;100324.66;5073590;28;1021;-39
2022/08/24 11:03:47;;;;;;;;;;;;;;;29.32;39.17;100319.22;5066348;28;823;-37
2022/08/24 11:06:13;;;;;;;;;;;;;;;29.50;38.94;100332.13;5074779;28;1056;-39
2022/08/24 11:08:38;;;;;;;;;;;;;;;29.73;39.09;100330.06;5073225;28;1072;-38
2022/08/24 11:11:11;;;;;;;;;;;;;;;28.23;43.35;100347.84;5058115;28;1366;-39
2022/08/24 11:13:37;;;;;;;;;;;;;;;25.31;48.65;100344.53;5076071;28;1179;-39
2022/08/24 11:16:03;;;;;;;;;;;;;;;24.73;49.96;100344.06;5055593;28;959;-38
2022/08/24 11:18:44;;;;;;;;;;;;;;;24.31;49.97;100333.50;5074847;28;1973;-35
2022/08/24 11:21:10;;;;;;;;;;;;;;;23.06;52.14;100320.19;5070657;28;1028;-40
2022/08/24 11:23:35;;;;;;;;;;;;;;;23.53;52.15;100328.63;5051275;28;2492;-40
2022/08/24 11:26:04;;;;;;;;;;;;;;;23.75;51.61;100320.88;5072662;28;1020;-38
2022/08/24 11:28:37;;;;;;;;;;;;;;;23.65;51.70;100324.59;5068975;28;924;-39
2022/08/24 11:31:03;;;;;;;;;;;;;;;23.53;52.47;100326.78;5074985;28;969;-39
2022/08/24 11:33:28;;;;;;;;;;;;;;;23.18;53.08;100318.03;5074980;28;1037;-38
2022/08/24 11:35:53;;;;;;;;;;;;;;;23.17;53.58;100325.22;5075363;28;1021;-40
2022/08/24 11:38:20;;;;;;;;;;;;;;;24.08;56.65;100327.00;5076977;28;1931;-38
2022/08/24 11:40:49;;;;;;;;;;;;;;;26.36;46.04;100315.25;5076336;28;1053;-39
2022/08/24 11:43:18;;;;;;;;;;;;;;;23.46;52.38;100310.50;5071281;28;965;-37
2022/08/24 11:45:50;;;;;;;;;;;;;;;22.63;54.60;100294.31;5057680;28;1005;-38
2022/08/24 11:48:15;;;;;;;;;;;;;;;22.39;55.42;100298.56;5075673;28;1013;-35
2022/08/24 11:50:44;;;;;;;;;;;;;;;22.12;56.36;100298.63;5074895;28;1024;-36
2022/08/24 11:53:12;;;;;;;;;;;;;;;22.04;55.91;100295.06;5065549;28;993;-37
2022/08/24 11:55:38;;;;;;;;;;;;;;;22.08;56.04;100294.59;5066208;28;2537;-36
2022/08/24 11:58:22;;;;;;;;;;;;;;;21.99;56.11;100287.50;5065658;28;1965;-37
2022/08/24 12:00:48;;;;;;;;;;;;;;;21.81;56.54;100284.88;5061800;28;1043;-38
2022/08/24 12:03:22;;;;;;;;;;;;;;;21.85;56.38;100278.22;5061336;28;1127;-38
2022/08/24 12:06:02;;;;;;;;;;;;;;;21.62;57.00;100268.03;5072405;28;1017;-38
2022/08/24 12:08:33;;;;;;;;;;;;;;;21.62;57.00;100271.53;5060063;28;1188;-38
2022/08/24 12:10:59;;;;;;;;;;;;;;;21.69;57.33;100277.09;5055602;28;1235;-38
2022/08/24 12:13:30;;;;;;;;;;;;;;;21.54;57.28;100271.47;5063116;28;1112;-39
2022/08/24 12:16:05;;;;;;;;;;;;;;;20.91;57.73;100266.97;5056493;28;994;-40
2022/08/24 12:19:08;;;;;;;;;;;;;;;20.81;58.16;100268.88;5072549;28;1902;-39
2022/08/24 12:21:35;;;;;;;;;;;;;;;20.73;58.44;100266.09;4962787;28;1262;-37
2022/08/24 12:24:03;;;;;;;;;;;;;;;23.49;52.61;100266.38;4958333;28;1991;-39
2022/08/24 12:26:35;;;;;;;;;;;;;;;23.07;51.97;100257.50;5013386;28;1347;-40
2022/08/24 12:29:15;;;;;;;;;;;;;;;21.35;57.10;100251.97;5067645;28;993;-40
2022/08/24 12:31:43;;;;;;;;;;;;;;;20.96;58.27;100258.50;5074967;28;942;-39
2022/08/24 12:34:11;;;;;;;;;;;;;;;20.94;58.33;100248.97;5076470;28;1079;-38
2022/08/24 12:36:55;;;;;;;;;;;;;;;21.02;58.17;100254.38;5065661;28;954;-40
2022/08/24 12:39:30;;;;;;;;;;;;;;;23.70;53.33;100255.09;5056028;28;1975;-38
2022/08/24 12:42:12;;;;;;;;;;;;;;;25.68;46.58;100263.09;5045820;28;1292;-39
2022/08/24 12:44:40;;;;;;;;;;;;;;;26.90;43.37;100267.25;5074510;28;1198;-37
2022/08/24 12:47:05;;;;;;;;;;;;;;;27.58;42.05;100259.69;5057788;28;1093;-37
2022/08/24 12:49:37;;;;;;;;;;;;;;;27.96;44.45;100263.91;5046819;28;1295;-39
2022/08/24 12:52:08;;;;;;;;;;;;;;;28.17;41.42;100264.81;5050815;28;1040;-42
2022/08/24 12:54:38;;;;;;;;;;;;;;;28.24;42.64;100263.78;5045964;28;2427;-42
2022/08/24 12:57:06;;;;;;;;;;;;;;;28.39;40.68;100251.19;5052783;28;934;-41
2022/08/24 12:59:38;;;;;;;;;;;;;;;28.54;40.47;100246.44;5063878;28;1089;-41
2022/08/24 13:02:05;;;;;;;;;;;;;;;28.66;42.40;100243.13;5067870;28;1032;-41
2022/08/24 13:04:30;;;;;;;;;;;;;;;28.59;40.35;100241.22;5052310;28;1081;-44
2022/08/24 13:07:09;;;;;;;;;;;;;;;28.56;40.69;100247.06;5071804;28;1421;-43
2022/08/24 13:09:42;;;;;;;;;;;;;;;28.69;41.02;100251.69;5042237;28;1150;-41